Terminal Aerodrome Forecast
Issued by NWS

Home | Current Version | Previous Version | Text Only | Print | Product List | Glossary On
Versions: 1 2 3 4 5 6 7 8 9 10 11 12 13 14 15 16 17 18 19 20 21 22 23 24 25 26 27 28 29 30
000
FTUS43 KGRR 222339
TAFMKG
TAF
KMKG 222339Z 2300/2324 19014G22KT 4SM BR FEW007 FEW016 BKN140
     FM230100 19015G22KT 6SM BR BKN150
     FM230300 20013G20KT 4SM BR VCSH OVC015
     FM230600 23012G20KT 2SM BR OVC004
     FM230900 28009KT 1/4SM FG OVC001
     FM231400 34008KT 2SM BR OVC007
     FM231800 36008KT P6SM BKN045
     FM232300 03008KT P6SM BKN140=

USA.gov is the U.S. government's official web portal to all federal, state and local government web resources and services.